Time;durP1;ratioP1;P1;durP2;ratioP2;P2;SDS_P1;SDS_P2;PMS_P1;PMS_P2;Temp;Humidity;BMP_temperature;BMP_pressure;BME280_temperature;BME280_humidity;BME280_pressure;Samples;Min_cycle;Max_cycle;Signal;HPM_P1;HPM_P2
2022/01/09 00:00:40;;;;;;;5.47;2.63;;;6.10;99.90;;;;;;5073329;28;20215;-74
2022/01/09 00:03:06;;;;;;;3.73;1.90;;;6.00;99.90;;;;;;5064280;28;20988;-74
2022/01/09 00:05:33;;;;;;;4.23;1.90;;;6.00;99.90;;;;;;5066771;28;20203;-74
2022/01/09 00:07:59;;;;;;;3.60;2.10;;;6.00;99.90;;;;;;5064214;28;20226;-75
2022/01/09 00:10:27;;;;;;;3.20;1.90;;;6.00;99.90;;;;;;5065187;28;20185;-75
2022/01/09 00:12:52;;;;;;;3.47;1.57;;;6.00;99.90;;;;;;5069055;28;20200;-74
2022/01/09 00:15:18;;;;;;;2.00;1.20;;;6.10;99.90;;;;;;5067436;28;20243;-74
2022/01/09 00:17:44;;;;;;;2.30;1.50;;;6.20;99.90;;;;;;5067525;28;20227;-74
2022/01/09 00:20:11;;;;;;;1.63;1.20;;;6.30;99.90;;;;;;5065983;28;20200;-75
2022/01/09 00:22:47;;;;;;;1.63;1.07;;;6.30;99.90;;;;;;5066755;28;20539;-75
2022/01/09 00:25:19;;;;;;;1.80;1.00;;;6.30;99.90;;;;;;5050241;28;20181;-75
2022/01/09 00:27:45;;;;;;;3.03;1.37;;;6.30;99.90;;;;;;5065189;28;20639;-75
2022/01/09 00:30:13;;;;;;;3.00;1.40;;;6.40;99.90;;;;;;5066352;28;20188;-75
2022/01/09 00:32:39;;;;;;;2.37;1.10;;;6.40;99.90;;;;;;5065177;28;20201;-75
2022/01/09 00:35:06;;;;;;;1.53;1.10;;;6.40;99.90;;;;;;5065071;28;20186;-75
2022/01/09 00:37:32;;;;;;;1.67;1.10;;;6.40;99.90;;;;;;5064944;28;20600;-74
2022/01/09 00:39:58;;;;;;;2.83;1.50;;;6.40;99.90;;;;;;5065705;28;20185;-74
2022/01/09 00:42:24;;;;;;;2.87;1.37;;;6.40;99.90;;;;;;5067503;28;20738;-75
2022/01/09 00:44:50;;;;;;;1.80;1.20;;;6.40;99.90;;;;;;5064775;28;20239;-74
2022/01/09 00:47:16;;;;;;;2.10;1.10;;;6.40;99.90;;;;;;5069844;28;20205;-74
2022/01/09 00:49:41;;;;;;;2.97;1.40;;;6.40;99.90;;;;;;5066125;28;20195;-75
2022/01/09 00:52:07;;;;;;;2.50;1.20;;;6.40;99.90;;;;;;5065337;28;20209;-75
2022/01/09 00:54:33;;;;;;;2.50;1.10;;;6.40;99.90;;;;;;5065375;28;20203;-75
2022/01/09 00:56:59;;;;;;;1.23;0.80;;;6.50;99.90;;;;;;5066510;28;20217;-75
2022/01/09 00:59:25;;;;;;;1.70;0.90;;;6.50;99.90;;;;;;5067206;28;20221;-75
2022/01/09 01:01:51;;;;;;;4.63;2.10;;;6.50;99.90;;;;;;5068449;28;20268;-75
2022/01/09 01:04:16;;;;;;;1.40;0.90;;;6.50;99.90;;;;;;5069725;28;20601;-75
2022/01/09 01:06:42;;;;;;;1.43;0.90;;;6.50;99.90;;;;;;5068070;28;20758;-75
2022/01/09 01:09:09;;;;;;;1.27;1.00;;;6.50;99.90;;;;;;5066726;28;20193;-75
2022/01/09 01:11:34;;;;;;;1.83;1.10;;;6.50;99.90;;;;;;5069985;28;20252;-75
2022/01/09 01:14:00;;;;;;;0.90;0.90;;;6.50;99.90;;;;;;5068770;28;20213;-75
2022/01/09 01:16:26;;;;;;;1.57;1.10;;;6.50;99.90;;;;;;5069304;28;20571;-75
2022/01/09 01:18:54;;;;;;;1.10;0.90;;;6.50;99.90;;;;;;5063295;28;20169;-75
2022/01/09 01:21:22;;;;;;;1.00;0.90;;;6.50;99.90;;;;;;5063731;28;20239;-75
2022/01/09 01:23:48;;;;;;;0.87;0.83;;;6.50;99.90;;;;;;5064012;28;20213;-75
2022/01/09 01:26:14;;;;;;;1.00;0.90;;;6.50;99.90;;;;;;5067113;28;20192;-75
2022/01/09 01:28:40;;;;;;;0.80;0.80;;;6.50;99.90;;;;;;5067189;28;20247;-75
2022/01/09 01:31:11;;;;;;;1.03;0.70;;;6.60;99.90;;;;;;5064483;28;20199;-75
2022/01/09 01:33:37;;;;;;;1.10;0.80;;;6.60;99.90;;;;;;5076164;28;20197;-75
2022/01/09 01:36:03;;;;;;;1.60;0.80;;;6.60;99.90;;;;;;5063723;28;20204;-75
2022/01/09 01:38:30;;;;;;;0.73;0.73;;;6.60;99.90;;;;;;5062692;28;20197;-75
2022/01/09 01:40:58;;;;;;;0.80;0.80;;;6.60;99.90;;;;;;5065143;28;20701;-74
2022/01/09 01:43:24;;;;;;;0.80;0.80;;;6.60;99.90;;;;;;5063695;28;20225;-75
2022/01/09 01:45:50;;;;;;;0.97;0.80;;;6.60;99.90;;;;;;5062698;28;20192;-75
2022/01/09 01:48:17;;;;;;;0.73;0.73;;;6.70;99.90;;;;;;5061551;28;20555;-75
2022/01/09 01:50:43;;;;;;;1.40;0.80;;;6.70;99.90;;;;;;5060811;28;20189;-75
2022/01/09 01:53:15;;;;;;;0.93;0.77;;;6.70;99.90;;;;;;5065290;28;20201;-75
2022/01/09 01:55:41;;;;;;;0.87;0.80;;;6.70;99.90;;;;;;5066326;28;20193;-75
2022/01/09 01:58:13;;;;;;;0.70;0.70;;;6.70;99.90;;;;;;5063771;28;20573;-75
2022/01/09 02:00:40;;;;;;;1.80;0.73;;;6.70;99.90;;;;;;5066081;28;20181;-75
2022/01/09 02:03:07;;;;;;;1.30;1.07;;;6.70;99.90;;;;;;5066451;28;20208;-75
2022/01/09 02:05:33;;;;;;;0.97;0.77;;;6.70;99.90;;;;;;5065807;28;20676;-75
2022/01/09 02:08:02;;;;;;;0.87;0.80;;;6.70;99.90;;;;;;5068410;28;20187;-75
2022/01/09 02:10:28;;;;;;;0.70;0.70;;;6.70;99.90;;;;;;5066608;28;20183;-75
2022/01/09 02:12:56;;;;;;;0.63;0.63;;;6.70;99.90;;;;;;5066210;28;20229;-75
2022/01/09 02:15:36;;;;;;;1.13;0.90;;;6.70;99.90;;;;;;5065940;28;20656;-75
2022/01/09 02:18:05;;;;;;;1.17;0.90;;;6.60;99.90;;;;;;5067402;28;20253;-75
2022/01/09 02:20:31;;;;;;;1.10;0.80;;;6.70;99.90;;;;;;5067274;28;20185;-75
2022/01/09 02:22:57;;;;;;;2.50;0.87;;;6.60;99.90;;;;;;5067152;28;20193;-75
2022/01/09 02:25:24;;;;;;;0.70;0.70;;;6.60;99.90;;;;;;5067564;28;20182;-75
2022/01/09 02:27:50;;;;;;;0.97;0.90;;;6.60;99.90;;;;;;5066568;28;20184;-75
2022/01/09 02:30:15;;;;;;;0.80;0.80;;;6.60;99.90;;;;;;5065193;28;20185;-75
2022/01/09 02:32:41;;;;;;;1.93;0.80;;;6.60;99.90;;;;;;5064810;28;21034;-75
2022/01/09 02:35:07;;;;;;;1.20;1.00;;;6.60;99.90;;;;;;5066168;28;20679;-75
2022/01/09 02:37:33;;;;;;;0.80;0.80;;;6.50;99.90;;;;;;5067062;28;20730;-75
2022/01/09 02:39:58;;;;;;;0.90;0.90;;;6.60;99.90;;;;;;5048072;28;20691;-75
2022/01/09 02:42:28;;;;;;;1.27;1.00;;;6.60;99.90;;;;;;5068009;28;20694;-75
2022/01/09 02:44:57;;;;;;;1.90;1.00;;;6.60;99.90;;;;;;5065798;28;20181;-75
2022/01/09 02:47:25;;;;;;;0.80;0.80;;;6.60;99.90;;;;;;5066314;28;20177;-75
2022/01/09 02:49:53;;;;;;;0.93;0.90;;;6.60;99.90;;;;;;5060897;28;20197;-75
2022/01/09 02:52:34;;;;;;;0.93;0.83;;;6.60;99.90;;;;;;5071877;28;20201;-74
2022/01/09 02:55:10;;;;;;;0.70;0.70;;;6.60;99.90;;;;;;5060252;28;20262;-75
2022/01/09 02:57:37;;;;;;;1.13;0.70;;;6.60;99.90;;;;;;5066521;28;20213;-75
2022/01/09 03:00:10;;;;;;;1.00;0.90;;;6.60;99.90;;;;;;5053500;28;20264;-75
2022/01/09 03:02:35;;;;;;;2.20;0.80;;;6.70;99.90;;;;;;5070689;28;20196;-74
2022/01/09 03:05:01;;;;;;;0.97;0.80;;;6.60;99.90;;;;;;5071458;28;20659;-75
2022/01/09 03:07:27;;;;;;;1.53;1.10;;;6.70;99.90;;;;;;5070924;28;20181;-75
2022/01/09 03:09:53;;;;;;;1.10;0.90;;;6.70;99.90;;;;;;5071028;28;20255;-75
2022/01/09 03:12:19;;;;;;;2.10;0.93;;;6.70;99.90;;;;;;5072481;28;20352;-75
2022/01/09 03:14:46;;;;;;;2.57;1.20;;;6.70;99.90;;;;;;5071252;28;20185;-76
2022/01/09 03:17:12;;;;;;;1.77;1.30;;;6.70;99.90;;;;;;5070039;28;20209;-75
2022/01/09 03:19:38;;;;;;;2.00;1.30;;;6.80;99.90;;;;;;5071098;28;20230;-75
2022/01/09 03:22:04;;;;;;;1.87;1.20;;;6.80;99.90;;;;;;5071597;28;20201;-75
2022/01/09 03:24:30;;;;;;;2.17;1.20;;;6.80;99.90;;;;;;5068807;28;20194;-75
2022/01/09 03:26:55;;;;;;;1.60;1.10;;;6.80;99.90;;;;;;5071201;28;20268;-75
2022/01/09 03:29:21;;;;;;;1.60;1.10;;;6.80;99.90;;;;;;5068879;28;20189;-76
2022/01/09 03:31:47;;;;;;;1.30;1.13;;;6.80;99.90;;;;;;5071035;28;20173;-75
2022/01/09 03:34:13;;;;;;;1.57;0.97;;;6.80;99.90;;;;;;5071058;28;20200;-75
2022/01/09 03:36:39;;;;;;;3.37;1.20;;;6.80;99.90;;;;;;5070615;28;20201;-75
2022/01/09 03:39:05;;;;;;;0.87;0.87;;;6.90;99.90;;;;;;5069474;28;20215;-75
2022/01/09 03:41:31;;;;;;;0.70;0.70;;;6.90;99.90;;;;;;5065728;28;20181;-75
2022/01/09 03:43:56;;;;;;;1.63;0.90;;;6.80;99.90;;;;;;5070732;28;20747;-76
2022/01/09 03:46:22;;;;;;;1.80;0.77;;;6.90;99.90;;;;;;5069930;28;20180;-76
2022/01/09 03:48:48;;;;;;;1.10;0.77;;;6.90;99.90;;;;;;5069717;28;20185;-75
2022/01/09 03:51:14;;;;;;;0.70;0.70;;;6.90;99.90;;;;;;5068514;28;20234;-75
2022/01/09 03:53:40;;;;;;;0.80;0.80;;;6.90;99.90;;;;;;5070958;28;20205;-75
2022/01/09 03:56:06;;;;;;;0.60;0.60;;;6.90;99.90;;;;;;5067920;28;20617;-75
2022/01/09 03:58:35;;;;;;;0.70;0.70;;;6.90;99.90;;;;;;5069586;28;20223;-75
2022/01/09 04:01:02;;;;;;;0.80;0.80;;;6.90;99.90;;;;;;5068041;28;20679;-75
2022/01/09 04:03:28;;;;;;;0.67;0.67;;;6.90;99.90;;;;;;5069657;28;20621;-75
2022/01/09 04:05:54;;;;;;;0.60;0.60;;;6.90;99.90;;;;;;5069903;28;20181;-75
2022/01/09 04:08:19;;;;;;;1.27;0.70;;;6.90;99.90;;;;;;5071125;28;20186;-75
2022/01/09 04:10:47;;;;;;;1.90;0.70;;;6.90;99.90;;;;;;5071230;28;20645;-74
2022/01/09 04:13:14;;;;;;;0.70;0.70;;;6.90;99.90;;;;;;5070938;28;20663;-75
2022/01/09 04:15:45;;;;;;;1.20;0.87;;;7.00;99.90;;;;;;5071188;28;20177;-75
2022/01/09 04:18:14;;;;;;;1.47;0.90;;;7.00;99.90;;;;;;5070781;28;20422;-75
2022/01/09 04:20:40;;;;;;;0.70;0.70;;;7.00;99.90;;;;;;5070960;28;20176;-75
2022/01/09 04:23:06;;;;;;;0.90;0.70;;;7.00;99.90;;;;;;5069512;28;20205;-75
2022/01/09 04:25:31;;;;;;;0.60;0.60;;;7.00;99.90;;;;;;5070829;28;20181;-75
2022/01/09 04:27:57;;;;;;;0.60;0.60;;;7.00;99.90;;;;;;5070477;28;20261;-75
2022/01/09 04:30:23;;;;;;;0.70;0.60;;;7.00;99.90;;;;;;5071548;28;20214;-75
2022/01/09 04:32:49;;;;;;;0.70;0.60;;;7.00;99.90;;;;;;5070613;28;20280;-75
2022/01/09 04:35:15;;;;;;;2.83;0.70;;;6.90;99.90;;;;;;5070245;28;20838;-75
2022/01/09 04:37:42;;;;;;;0.57;0.57;;;6.90;99.90;;;;;;5067914;28;20286;-75
2022/01/09 04:40:10;;;;;;;0.50;0.50;;;6.90;99.90;;;;;;5068970;28;20184;-75
2022/01/09 04:42:49;;;;;;;6.30;0.60;;;6.80;99.90;;;;;;5068670;28;20225;-75
2022/01/09 04:45:17;;;;;;;0.40;0.40;;;6.80;99.90;;;;;;5069839;28;20196;-75
2022/01/09 04:47:47;;;;;;;0.67;0.50;;;6.80;99.90;;;;;;5059415;28;20209;-75
2022/01/09 04:50:19;;;;;;;0.83;0.40;;;6.70;99.90;;;;;;5069035;28;20189;-75
2022/01/09 04:52:46;;;;;;;0.50;0.50;;;6.70;99.90;;;;;;5069007;28;20216;-75
2022/01/09 04:55:12;;;;;;;0.60;0.50;;;6.70;99.90;;;;;;5070069;28;20196;-75
2022/01/09 04:57:38;;;;;;;2.90;0.50;;;6.70;99.90;;;;;;5067183;28;20200;-75
2022/01/09 05:00:06;;;;;;;0.40;0.40;;;6.60;99.90;;;;;;5068040;28;20260;-75
2022/01/09 05:02:32;;;;;;;0.50;0.50;;;6.60;99.90;;;;;;5068222;28;20209;-75
2022/01/09 05:04:57;;;;;;;0.40;0.40;;;6.50;99.90;;;;;;5068730;28;20181;-75
2022/01/09 05:07:23;;;;;;;0.60;0.40;;;6.50;99.90;;;;;;5069138;28;20321;-74
2022/01/09 05:09:49;;;;;;;0.87;0.50;;;6.40;99.90;;;;;;5067942;28;20212;-76
2022/01/09 05:12:15;;;;;;;0.30;0.30;;;6.40;99.90;;;;;;5067265;28;20204;-75
2022/01/09 05:14:41;;;;;;;1.33;0.47;;;6.30;99.90;;;;;;5064652;28;20181;-75
2022/01/09 05:17:06;;;;;;;0.40;0.40;;;6.30;99.90;;;;;;5068613;28;20229;-75
2022/01/09 05:19:34;;;;;;;0.50;0.50;;;6.20;99.90;;;;;;5066578;28;20200;-75
2022/01/09 05:22:01;;;;;;;0.40;0.40;;;6.20;99.90;;;;;;5068949;28;20185;-75
2022/01/09 05:24:27;;;;;;;0.50;0.50;;;6.20;99.90;;;;;;5070170;28;20184;-75
2022/01/09 05:26:54;;;;;;;0.97;0.50;;;6.10;99.90;;;;;;5068154;28;20204;-75
2022/01/09 05:29:21;;;;;;;0.40;0.40;;;6.10;99.90;;;;;;5051052;28;20192;-75
2022/01/09 05:31:48;;;;;;;0.60;0.60;;;6.10;99.90;;;;;;5068201;28;20936;-75
2022/01/09 05:34:15;;;;;;;0.50;0.50;;;6.10;99.90;;;;;;5070560;28;20273;-75
2022/01/09 05:36:41;;;;;;;0.57;0.57;;;6.00;99.90;;;;;;5068822;28;20300;-75
2022/01/09 05:39:07;;;;;;;0.60;0.60;;;6.10;99.90;;;;;;5066626;28;20180;-75
2022/01/09 05:41:33;;;;;;;0.60;0.60;;;6.00;99.90;;;;;;5066219;28;20213;-75
2022/01/09 05:43:59;;;;;;;1.13;0.70;;;6.00;99.90;;;;;;5069254;28;20270;-75
2022/01/09 05:46:25;;;;;;;0.60;0.60;;;6.00;99.90;;;;;;5064478;28;20667;-74
2022/01/09 05:48:51;;;;;;;1.33;0.60;;;6.00;99.90;;;;;;5067000;28;20182;-75
2022/01/09 05:51:17;;;;;;;1.00;0.80;;;6.00;99.90;;;;;;5066254;28;20234;-75
2022/01/09 05:53:43;;;;;;;1.23;0.60;;;5.90;99.90;;;;;;5067629;28;20205;-75
2022/01/09 05:56:09;;;;;;;1.47;0.60;;;5.90;99.90;;;;;;5065886;28;20204;-75
2022/01/09 05:58:35;;;;;;;0.60;0.60;;;6.00;99.90;;;;;;5068112;28;20208;-75
2022/01/09 06:01:03;;;;;;;1.07;0.60;;;6.00;99.90;;;;;;5064942;28;20268;-75
2022/01/09 06:03:29;;;;;;;1.30;0.77;;;6.00;99.90;;;;;;5066571;28;20202;-75
2022/01/09 06:05:55;;;;;;;0.93;0.70;;;6.00;99.90;;;;;;5065862;28;20177;-75
2022/01/09 06:08:21;;;;;;;1.00;0.60;;;6.00;99.90;;;;;;5068382;28;20231;-75
2022/01/09 06:10:47;;;;;;;1.50;0.70;;;6.00;99.90;;;;;;5067028;28;20258;-75
2022/01/09 06:13:12;;;;;;;0.60;0.60;;;6.00;99.90;;;;;;5065432;28;20201;-75
2022/01/09 06:15:38;;;;;;;1.23;0.80;;;6.00;99.90;;;;;;5045470;28;20950;-75
2022/01/09 06:18:05;;;;;;;1.63;0.80;;;6.00;99.90;;;;;;5065963;28;20216;-75
2022/01/09 06:20:31;;;;;;;0.87;0.70;;;6.00;99.90;;;;;;5065277;28;20181;-75
2022/01/09 06:22:57;;;;;;;1.27;0.77;;;6.00;99.90;;;;;;5068080;28;20292;-75
2022/01/09 06:25:23;;;;;;;1.00;0.80;;;6.10;99.90;;;;;;5067688;28;20268;-75
2022/01/09 06:27:49;;;;;;;2.93;1.00;;;6.10;99.90;;;;;;5068173;28;20193;-74
2022/01/09 06:30:15;;;;;;;2.20;0.90;;;6.10;99.90;;;;;;5066563;28;20177;-75
2022/01/09 06:32:40;;;;;;;3.87;1.00;;;6.10;99.90;;;;;;5068569;28;20570;-75
2022/01/09 06:35:07;;;;;;;2.60;1.10;;;6.10;99.90;;;;;;5066642;28;20177;-75
2022/01/09 06:37:34;;;;;;;2.33;1.03;;;6.10;99.90;;;;;;5066491;28;20221;-75
2022/01/09 06:40:00;;;;;;;1.57;1.00;;;6.10;99.90;;;;;;5067156;28;20189;-74
2022/01/09 06:42:25;;;;;;;1.63;1.10;;;6.20;99.90;;;;;;5065397;28;20216;-75
2022/01/09 06:44:51;;;;;;;3.33;1.40;;;6.20;99.90;;;;;;5067041;28;20227;-75
2022/01/09 06:47:17;;;;;;;3.50;1.40;;;6.20;99.90;;;;;;5067041;28;20212;-75
2022/01/09 06:49:43;;;;;;;4.97;1.50;;;6.20;99.90;;;;;;5068488;28;20667;-75
2022/01/09 06:52:09;;;;;;;4.97;1.60;;;6.20;99.90;;;;;;5066816;28;20213;-75
2022/01/09 06:54:35;;;;;;;5.17;1.67;;;6.20;99.90;;;;;;5066526;28;20679;-74
2022/01/09 06:57:02;;;;;;;4.07;1.60;;;6.20;99.90;;;;;;5067648;28;20296;-74
2022/01/09 06:59:27;;;;;;;4.93;1.70;;;6.30;99.90;;;;;;5067884;28;20181;-75
2022/01/09 07:01:53;;;;;;;7.17;2.20;;;6.30;99.90;;;;;;5067108;28;20184;-75
2022/01/09 07:04:19;;;;;;;5.93;2.10;;;6.30;99.90;;;;;;5065858;28;20571;-75
2022/01/09 07:06:44;;;;;;;6.30;2.10;;;6.30;99.90;;;;;;5064375;28;20205;-75
2022/01/09 07:09:10;;;;;;;6.33;2.10;;;6.30;99.90;;;;;;5067714;28;20199;-75
2022/01/09 07:11:36;;;;;;;6.53;2.30;;;6.30;99.90;;;;;;5068798;28;20586;-75
2022/01/09 07:14:01;;;;;;;6.83;1.93;;;6.30;99.90;;;;;;5067146;28;20204;-75
2022/01/09 07:16:27;;;;;;;7.03;2.10;;;6.40;99.90;;;;;;5065423;28;20232;-75
2022/01/09 07:18:53;;;;;;;5.63;2.20;;;6.40;99.90;;;;;;5067554;28;20185;-75
2022/01/09 07:21:19;;;;;;;6.87;2.27;;;6.40;99.90;;;;;;5066683;28;20173;-74
2022/01/09 07:23:45;;;;;;;10.10;2.50;;;6.40;99.90;;;;;;5063611;28;20213;-75
2022/01/09 07:26:11;;;;;;;8.37;2.43;;;6.40;99.90;;;;;;5066427;28;20178;-74
2022/01/09 07:28:37;;;;;;;9.37;2.50;;;6.40;99.90;;;;;;5067725;28;21283;-75
2022/01/09 07:31:02;;;;;;;8.70;2.60;;;6.50;99.90;;;;;;5067745;28;20192;-75
2022/01/09 07:33:30;;;;;;;6.20;2.40;;;6.50;99.90;;;;;;5067074;28;20568;-75
2022/01/09 07:35:56;;;;;;;6.63;2.70;;;6.50;99.90;;;;;;5068394;28;20645;-75
2022/01/09 07:38:22;;;;;;;10.40;2.70;;;6.50;99.90;;;;;;5070353;28;20232;-75
2022/01/09 07:40:49;;;;;;;6.23;2.40;;;6.50;99.90;;;;;;5070077;28;20184;-75
2022/01/09 07:43:15;;;;;;;6.07;2.50;;;6.50;99.90;;;;;;5071359;28;20323;-75
2022/01/09 07:45:41;;;;;;;8.53;2.63;;;6.50;99.90;;;;;;5070874;28;20199;-74
2022/01/09 07:48:06;;;;;;;6.90;2.60;;;6.50;99.90;;;;;;5069794;28;20205;-75
2022/01/09 07:50:33;;;;;;;4.73;2.27;;;6.60;99.90;;;;;;5071145;28;20192;-75
2022/01/09 07:52:59;;;;;;;5.83;2.30;;;6.50;99.90;;;;;;5064115;28;20208;-75
2022/01/09 07:55:25;;;;;;;8.13;3.13;;;6.50;99.90;;;;;;5067502;28;20182;-75
2022/01/09 07:57:51;;;;;;;7.13;2.70;;;6.50;99.90;;;;;;5066824;28;20265;-75
2022/01/09 08:00:19;;;;;;;7.00;3.07;;;6.50;99.90;;;;;;5046460;28;20185;-75
2022/01/09 08:02:46;;;;;;;6.20;2.53;;;6.60;99.90;;;;;;5066928;28;20197;-75
2022/01/09 08:05:14;;;;;;;5.07;2.23;;;6.60;99.90;;;;;;5067696;28;20177;-75
2022/01/09 08:07:40;;;;;;;7.07;2.73;;;6.60;99.90;;;;;;5069549;28;20185;-74
2022/01/09 08:10:06;;;;;;;6.03;2.30;;;6.60;99.90;;;;;;5068013;28;20204;-75
2022/01/09 08:12:32;;;;;;;8.43;2.23;;;6.60;99.90;;;;;;5065096;28;20224;-75
2022/01/09 08:14:58;;;;;;;6.00;2.10;;;6.60;99.90;;;;;;5066040;28;20185;-74
2022/01/09 08:17:24;;;;;;;6.43;2.00;;;6.60;99.90;;;;;;5065376;28;20254;-74
2022/01/09 08:19:50;;;;;;;5.33;1.87;;;6.60;99.90;;;;;;5064276;28;20657;-74
2022/01/09 08:22:16;;;;;;;5.37;1.90;;;6.60;99.90;;;;;;5066419;28;20300;-74
2022/01/09 08:24:42;;;;;;;5.80;2.00;;;6.60;99.90;;;;;;5065783;28;20736;-74
2022/01/09 08:27:09;;;;;;;4.40;1.87;;;6.60;99.90;;;;;;5063982;28;20178;-75
2022/01/09 08:29:37;;;;;;;5.47;1.80;;;6.60;99.90;;;;;;5065307;28;20181;-77
2022/01/09 08:32:04;;;;;;;5.00;1.83;;;6.60;99.90;;;;;;5067873;28;20611;-78
2022/01/09 08:34:30;;;;;;;3.57;1.53;;;6.60;99.90;;;;;;5068632;28;20183;-80
2022/01/09 08:36:55;;;;;;;3.47;2.00;;;6.60;99.90;;;;;;5070625;28;20288;-77
2022/01/09 08:39:21;;;;;;;4.57;1.90;;;6.60;99.90;;;;;;5065748;28;20268;-78
2022/01/09 08:41:47;;;;;;;5.90;1.80;;;6.60;99.90;;;;;;5069955;28;20213;-77
2022/01/09 08:44:13;;;;;;;6.53;2.20;;;6.60;99.90;;;;;;5067159;28;20185;-76
2022/01/09 08:46:39;;;;;;;6.13;2.20;;;6.60;99.90;;;;;;5063147;28;20659;-76
2022/01/09 08:49:05;;;;;;;5.37;1.83;;;6.60;99.90;;;;;;5069619;28;20293;-78
2022/01/09 08:51:31;;;;;;;4.53;1.67;;;6.60;99.90;;;;;;5064594;28;20190;-80
2022/01/09 08:53:58;;;;;;;5.20;2.10;;;6.60;99.90;;;;;;5068082;28;20205;-82
2022/01/09 08:56:27;;;;;;;7.10;2.00;;;6.60;99.90;;;;;;5068777;28;20192;-77
2022/01/09 08:58:53;;;;;;;4.33;1.90;;;6.60;99.90;;;;;;5070698;28;20226;-78
2022/01/09 09:01:19;;;;;;;6.17;2.13;;;6.60;99.90;;;;;;5070545;28;20230;-77
2022/01/09 09:03:45;;;;;;;6.33;2.20;;;6.60;99.90;;;;;;5069916;28;20284;-77
2022/01/09 09:06:13;;;;;;;5.17;2.00;;;6.70;99.90;;;;;;5070000;28;20179;-79
2022/01/09 09:08:40;;;;;;;6.23;2.10;;;6.70;99.90;;;;;;5068440;28;20208;-78
2022/01/09 09:11:07;;;;;;;6.27;2.20;;;6.70;99.90;;;;;;5069367;28;21567;-76
2022/01/09 09:13:34;;;;;;;6.50;2.23;;;6.70;99.90;;;;;;5069239;28;20712;-77
2022/01/09 09:16:00;;;;;;;6.30;1.73;;;6.70;99.90;;;;;;5065189;28;20200;-77
2022/01/09 09:18:27;;;;;;;10.07;2.40;;;6.70;99.90;;;;;;5068885;28;20262;-77
2022/01/09 09:20:53;;;;;;;7.10;2.00;;;6.80;99.90;;;;;;5067835;28;20170;-77
2022/01/09 09:23:20;;;;;;;8.13;2.40;;;6.80;99.90;;;;;;5050010;28;20205;-78
2022/01/09 09:25:48;;;;;;;9.43;2.50;;;6.70;99.90;;;;;;5066959;28;20668;-77
2022/01/09 09:28:17;;;;;;;7.90;2.43;;;6.80;99.90;;;;;;5065246;28;20192;-77
2022/01/09 09:30:44;;;;;;;8.27;2.27;;;6.80;99.90;;;;;;5066878;28;20192;-77
2022/01/09 09:33:10;;;;;;;8.87;2.53;;;6.80;99.90;;;;;;5068739;28;20330;-77
2022/01/09 09:35:38;;;;;;;6.93;2.13;;;6.80;99.90;;;;;;5066751;28;20350;-77
2022/01/09 09:38:05;;;;;;;6.47;2.17;;;6.80;99.90;;;;;;5068640;28;20220;-77
2022/01/09 09:40:32;;;;;;;6.57;2.00;;;6.80;99.90;;;;;;5075159;28;20334;-77
2022/01/09 09:43:01;;;;;;;8.73;2.90;;;6.80;99.90;;;;;;5069479;28;20213;-77
2022/01/09 09:45:28;;;;;;;7.87;2.23;;;6.90;99.90;;;;;;5068553;28;20181;-77
2022/01/09 09:47:55;;;;;;;10.40;2.90;;;6.90;99.90;;;;;;5068564;28;20667;-76
2022/01/09 09:50:21;;;;;;;10.50;3.40;;;6.90;99.90;;;;;;5065647;28;20207;-76
2022/01/09 09:52:48;;;;;;;7.37;2.73;;;6.90;99.90;;;;;;5065886;28;20197;-76
2022/01/09 09:55:17;;;;;;;8.10;2.50;;;6.90;99.90;;;;;;5066545;28;20173;-76
2022/01/09 09:57:44;;;;;;;8.17;2.50;;;6.90;99.90;;;;;;5066274;28;20711;-76
2022/01/09 10:00:16;;;;;;;6.87;2.23;;;6.90;99.90;;;;;;5065994;28;20314;-76
2022/01/09 10:02:48;;;;;;;5.17;1.80;;;7.00;99.90;;;;;;5065266;28;20533;-77
2022/01/09 10:05:18;;;;;;;9.03;2.30;;;7.00;99.90;;;;;;5068030;28;20870;-76
2022/01/09 10:07:46;;;;;;;8.03;2.30;;;7.00;99.90;;;;;;5069257;28;20177;-77
2022/01/09 10:10:15;;;;;;;9.20;2.30;;;7.00;99.90;;;;;;5070488;28;20204;-77
2022/01/09 10:12:44;;;;;;;7.17;2.03;;;7.00;99.90;;;;;;5067164;28;20304;-77
2022/01/09 10:15:18;;;;;;;7.90;1.90;;;7.00;99.90;;;;;;5066368;28;20189;-77
2022/01/09 10:17:47;;;;;;;9.57;2.20;;;7.00;99.90;;;;;;5064191;28;20221;-76
2022/01/09 10:20:21;;;;;;;8.50;2.47;;;7.00;99.90;;;;;;5063074;28;20312;-77
2022/01/09 10:22:54;;;;;;;7.07;2.07;;;7.00;99.90;;;;;;5065045;28;20784;-77
2022/01/09 10:25:20;;;;;;;8.53;2.47;;;7.00;99.90;;;;;;5065537;28;20272;-76
2022/01/09 10:27:57;;;;;;;8.37;1.97;;;7.00;99.90;;;;;;5063919;28;20326;-76
2022/01/09 10:30:27;;;;;;;8.63;2.00;;;7.00;99.90;;;;;;5062362;28;20218;-76
2022/01/09 10:32:57;;;;;;;9.83;2.03;;;7.00;99.90;;;;;;5066919;28;20209;-76
2022/01/09 10:35:26;;;;;;;6.53;2.30;;;7.00;99.90;;;;;;5064647;28;20283;-77
2022/01/09 10:38:05;;;;;;;10.00;2.10;;;7.10;99.90;;;;;;5062242;28;20672;-76
2022/01/09 10:40:34;;;;;;;9.20;2.30;;;7.10;99.90;;;;;;5060925;28;20181;-76
2022/01/09 10:43:16;;;;;;;6.10;1.90;;;7.20;99.90;;;;;;5057329;28;20524;-76
2022/01/09 10:45:59;;;;;;;6.33;2.00;;;7.30;99.90;;;;;;5063928;28;20185;-77
2022/01/09 10:48:33;;;;;;;6.77;2.30;;;7.30;99.90;;;;;;5065206;28;20181;-76
2022/01/09 10:51:01;;;;;;;9.03;2.00;;;7.30;99.90;;;;;;5063113;28;20180;-76
2022/01/09 10:53:31;;;;;;;10.53;2.40;;;7.40;99.90;;;;;;5061933;28;20882;-76
2022/01/09 10:56:04;;;;;;;5.80;1.60;;;7.40;99.90;;;;;;5061923;28;20189;-77
2022/01/09 10:58:34;;;;;;;8.47;2.20;;;7.40;99.70;;;;;;5062759;28;20206;-76
2022/01/09 11:01:09;;;;;;;7.33;2.30;;;7.40;99.90;;;;;;5064012;28;20252;-76
2022/01/09 11:03:35;;;;;;;6.23;1.77;;;7.40;99.90;;;;;;5046589;28;20200;-77
2022/01/09 11:06:02;;;;;;;6.20;1.90;;;7.50;99.90;;;;;;5064898;28;20533;-76
2022/01/09 11:08:30;;;;;;;7.80;2.03;;;7.50;99.90;;;;;;5063066;28;20189;-77
2022/01/09 11:10:56;;;;;;;6.50;1.93;;;7.50;99.50;;;;;;5065532;28;20766;-77
2022/01/09 11:13:25;;;;;;;8.83;2.43;;;7.60;98.20;;;;;;5064144;28;20873;-77
2022/01/09 11:18:38;;;;;;;6.90;2.13;;;7.60;97.00;;;;;;5069981;28;20225;-76
2022/01/09 11:21:06;;;;;;;6.47;1.97;;;7.60;99.90;;;;;;5068364;28;20192;-76
2022/01/09 11:23:57;;;;;;;4.53;1.60;;;7.60;99.90;;;;;;5067692;28;20215;-76
2022/01/09 11:26:32;;;;;;;6.57;2.13;;;7.60;99.70;;;;;;5068235;28;20690;-76
2022/01/09 11:28:58;;;;;;;8.07;2.00;;;7.70;99.90;;;;;;5068435;28;20184;-77
2022/01/09 11:31:47;;;;;;;5.57;1.90;;;7.70;99.90;;;;;;5068523;28;20262;-77
2022/01/09 11:34:30;;;;;;;7.10;1.90;;;7.80;99.90;;;;;;5068854;28;20180;-77
2022/01/09 11:37:25;;;;;;;10.17;1.80;;;7.90;99.90;;;;;;5071489;28;20201;-77
2022/01/09 11:39:51;;;;;;;8.63;1.90;;;7.90;96.20;;;;;;5070282;28;20298;-76
2022/01/09 11:42:17;;;;;;;6.50;1.90;;;7.90;96.80;;;;;;5070044;28;20555;-76
2022/01/09 11:44:48;;;;;;;5.67;2.10;;;7.90;95.60;;;;;;5071137;28;20269;-76
2022/01/09 11:47:14;;;;;;;5.70;2.07;;;7.90;96.40;;;;;;5069719;28;20664;-77
2022/01/09 11:49:52;;;;;;;6.37;1.90;;;8.00;92.80;;;;;;5065731;28;20192;-77
2022/01/09 11:52:24;;;;;;;7.43;1.93;;;8.00;94.50;;;;;;5070746;28;20216;-76
2022/01/09 11:55:00;;;;;;;7.70;1.90;;;8.00;92.50;;;;;;5068134;28;20216;-76
2022/01/09 11:57:49;;;;;;;6.57;1.73;;;8.00;91.30;;;;;;5068445;28;20223;-76
2022/01/09 12:00:36;;;;;;;8.17;2.00;;;8.00;90.00;;;;;;5050674;28;20223;-76
2022/01/09 12:03:27;;;;;;;7.87;2.00;;;8.10;90.40;;;;;;5071384;28;20238;-76
2022/01/09 12:06:04;;;;;;;4.93;1.53;;;8.10;89.20;;;;;;5070958;28;20645;-76
2022/01/09 12:08:56;;;;;;;8.53;1.60;;;8.00;90.50;;;;;;5071112;28;20589;-75
2022/01/09 12:11:22;;;;;;;7.70;1.80;;;8.00;90.60;;;;;;5070782;28;20195;-76
2022/01/09 12:13:48;;;;;;;6.50;1.70;;;8.00;91.20;;;;;;5069860;28;20287;-76
2022/01/09 12:16:49;;;;;;;4.40;1.50;;;7.90;88.40;;;;;;5052627;28;20225;-76
2022/01/09 12:19:53;;;;;;;3.30;1.47;;;7.90;89.40;;;;;;5069398;28;20242;-75
2022/01/09 12:22:45;;;;;;;6.63;1.70;;;7.90;88.40;;;;;;5068950;28;20201;-73
2022/01/09 12:25:28;;;;;;;4.83;1.73;;;8.10;86.40;;;;;;5069121;28;20189;-73
2022/01/09 12:28:17;;;;;;;6.90;1.70;;;8.20;86.00;;;;;;5069905;28;20196;-75
2022/01/09 12:31:04;;;;;;;3.60;1.67;;;8.30;83.40;;;;;;5069101;28;20239;-76
2022/01/09 12:33:34;;;;;;;3.70;1.90;;;8.30;86.10;;;;;;5068344;28;20209;-76
2022/01/09 12:36:11;;;;;;;4.73;1.70;;;8.40;87.30;;;;;;5069654;28;20185;-76
2022/01/09 12:38:51;;;;;;;4.83;1.70;;;8.50;84.80;;;;;;5069519;28;20798;-76
2022/01/09 12:41:24;;;;;;;6.63;2.00;;;8.50;83.10;;;;;;5070947;28;20178;-76
2022/01/09 12:43:57;;;;;;;5.20;2.30;;;8.50;81.80;;;;;;5070059;28;20683;-76
2022/01/09 12:46:23;;;;;;;4.53;1.80;;;8.40;83.90;;;;;;5063855;28;20181;-76
2022/01/09 12:48:54;;;;;;;6.30;1.90;;;8.60;82.20;;;;;;5070992;28;20227;-76
2022/01/09 12:51:21;;;;;;;4.87;1.50;;;8.90;80.00;;;;;;5067512;28;20205;-76
2022/01/09 12:53:49;;;;;;;5.03;1.60;;;8.90;78.50;;;;;;5070082;28;20219;-76
2022/01/09 12:56:21;;;;;;;7.00;1.90;;;9.00;77.00;;;;;;5068224;28;20177;-76
2022/01/09 12:58:52;;;;;;;5.50;1.70;;;9.00;74.20;;;;;;5069864;28;20185;-76
2022/01/09 13:01:33;;;;;;;4.27;1.53;;;9.20;74.20;;;;;;5068296;28;20941;-77
2022/01/09 13:04:14;;;;;;;6.00;1.83;;;9.30;75.40;;;;;;5065808;28;20193;-77
2022/01/09 13:06:42;;;;;;;6.47;1.90;;;9.70;73.50;;;;;;5065924;28;20235;-77